Other Surface Observations
Issued by NWS Great Falls, MT

Home | Current Version | Previous Version | Text Only | Print | Product List | Glossary On
Versions: 1 2 3 4 5 6 7 8 9 10 11 12 13 14 15 16 17 18 19 20 21 22 23 24 25 26 27 28 29 30 31 32 33 34 35 36 37 38 39 40 41 42 43 44 45 46 47 48 49 50
000
SXUS55 KTFX 262005
OSOTFX
AREA AWOS OBSERVATIONS
NATIONAL WEATHER SERVICE GREAT FALLS MT
0105 PM MST FRI DEC 26 2014

METAR KPWD 262000Z AUTO 16006KT 8SM M10/M11 A3011 RMK PLENTYWOOD
METAR KPO1 262000Z AUTO 06007KT 4SM M08/M11 A3012 RMK POPLAR
METAR K1S3 262000Z AUTO 00000KT 10SM M02/M07 A3008 RMK FORSYTH
METAR KS71 262000Z AUTO 26009KT 10SM M04/M07 A3013 RMK CHINOOK
METAR K6S0 262000Z AUTO 23009KT 10SM M05/M09 A3001 RMK BIG TIMBER
METAR K38S 262000Z AUTO 00000KT 4SM M04/M07 A3011 RMK DEER LODGE
METAR K3U3 262000Z AUTO 01006KT 10SM M05/M09 A3005 RMK ANACONDA
METAR K6S5 262000Z AUTO 18005KT 10SM M02/M05 A3013 RMK HAMILTON
METAR KS59 262000Z AUTO 00000KT 10SM M02/M06 A3022 RMK LIBBY



USA.gov is the U.S. government's official web portal to all federal, state and local government web resources and services.